Time;durP1;ratioP1;P1;durP2;ratioP2;P2;SDS_P1;SDS_P2;PMS_P1;PMS_P2;Temp;Humidity;BMP_temperature;BMP_pressure;BME280_temperature;BME280_humidity;BME280_pressure;Samples;Min_cycle;Max_cycle;Signal;HPM_P1;HPM_P2
2022/05/29 00:00:15;;;;;;;;;;;20.70;42.10;;;;;;484621;246;1121;-78
2022/05/29 00:02:17;;;;;;;;;;;20.70;42.10;;;;;;484557;246;1223;-78
2022/05/29 00:04:19;;;;;;;;;;;20.70;42.10;;;;;;484626;246;1095;-78
2022/05/29 00:06:19;;;;;;;;;;;20.70;42.10;;;;;;484602;246;1481;-78
2022/05/29 00:08:21;;;;;;;;;;;20.70;42.20;;;;;;484882;246;1191;-78
2022/05/29 00:10:22;;;;;;;;;;;20.70;42.20;;;;;;484784;246;2191;-78
2022/05/29 00:12:23;;;;;;;;;;;20.80;42.10;;;;;;484890;246;1168;-78
2022/05/29 00:14:25;;;;;;;;;;;20.70;42.00;;;;;;484765;246;1167;-78
2022/05/29 00:16:26;;;;;;;;;;;20.70;42.00;;;;;;484896;246;1186;-78
2022/05/29 00:18:27;;;;;;;;;;;20.70;42.10;;;;;;484646;246;1129;-78
2022/05/29 00:20:29;;;;;;;;;;;20.60;42.20;;;;;;484727;246;1258;-78
2022/05/29 00:22:30;;;;;;;;;;;20.60;42.20;;;;;;484905;246;1130;-78
2022/05/29 00:24:31;;;;;;;;;;;20.70;42.10;;;;;;484724;246;1220;-78
2022/05/29 00:26:33;;;;;;;;;;;20.70;42.10;;;;;;484887;246;1280;-78
2022/05/29 00:28:34;;;;;;;;;;;20.70;42.10;;;;;;484743;246;1114;-78
2022/05/29 00:30:35;;;;;;;;;;;20.60;42.00;;;;;;484914;246;2183;-78
2022/05/29 00:32:37;;;;;;;;;;;20.70;42.10;;;;;;484730;246;1104;-78
2022/05/29 00:34:38;;;;;;;;;;;20.70;42.00;;;;;;484822;246;1085;-78
2022/05/29 00:36:39;;;;;;;;;;;20.70;41.90;;;;;;484626;246;1287;-78
2022/05/29 00:38:41;;;;;;;;;;;20.70;41.90;;;;;;484747;246;1096;-77
2022/05/29 00:40:42;;;;;;;;;;;20.60;41.90;;;;;;484666;246;1111;-78
2022/05/29 00:42:43;;;;;;;;;;;20.70;41.90;;;;;;484647;246;1081;-77
2022/05/29 00:44:45;;;;;;;;;;;20.70;41.80;;;;;;484729;246;1418;-77
2022/05/29 00:46:46;;;;;;;;;;;20.70;41.70;;;;;;484679;242;1133;-77
2022/05/29 00:48:47;;;;;;;;;;;20.70;41.70;;;;;;484676;246;947;-78
2022/05/29 00:50:49;;;;;;;;;;;20.70;41.60;;;;;;484623;246;2124;-78
2022/05/29 00:52:50;;;;;;;;;;;20.70;41.50;;;;;;484896;246;1006;-78
2022/05/29 00:54:53;;;;;;;;;;;20.70;41.60;;;;;;484745;246;1049;-78
2022/05/29 00:56:55;;;;;;;;;;;20.70;41.50;;;;;;484676;246;1278;-78
2022/05/29 00:58:56;;;;;;;;;;;20.70;41.50;;;;;;484713;246;948;-78
2022/05/29 01:00:57;;;;;;;;;;;20.70;41.50;;;;;;484665;242;1544;-77
2022/05/29 01:02:59;;;;;;;;;;;20.70;41.50;;;;;;484957;246;1136;-78
2022/05/29 01:05:00;;;;;;;;;;;20.70;41.50;;;;;;484727;246;968;-78
2022/05/29 01:07:01;;;;;;;;;;;20.70;41.50;;;;;;484738;246;1218;-78
2022/05/29 01:09:03;;;;;;;;;;;20.80;41.40;;;;;;484736;246;1056;-78
2022/05/29 01:11:04;;;;;;;;;;;20.70;41.40;;;;;;484810;246;2191;-78
2022/05/29 01:13:05;;;;;;;;;;;20.70;41.40;;;;;;484711;246;1152;-78
2022/05/29 01:15:07;;;;;;;;;;;20.70;41.40;;;;;;484737;246;1094;-78
2022/05/29 01:17:08;;;;;;;;;;;20.70;41.40;;;;;;484791;246;1141;-78
2022/05/29 01:19:10;;;;;;;;;;;20.70;41.40;;;;;;484680;246;1054;-78
2022/05/29 01:21:11;;;;;;;;;;;20.70;41.30;;;;;;484860;246;1232;-78
2022/05/29 01:23:13;;;;;;;;;;;20.70;41.30;;;;;;484837;246;1109;-78
2022/05/29 01:25:14;;;;;;;;;;;20.70;41.30;;;;;;484757;246;1293;-78
2022/05/29 01:27:16;;;;;;;;;;;20.70;41.20;;;;;;484599;246;1128;-78
2022/05/29 01:29:17;;;;;;;;;;;20.70;41.20;;;;;;484842;246;1193;-78
2022/05/29 01:31:18;;;;;;;;;;;20.70;41.30;;;;;;484669;246;2176;-78
2022/05/29 01:33:20;;;;;;;;;;;20.70;41.30;;;;;;484695;246;989;-78
2022/05/29 01:35:21;;;;;;;;;;;20.70;41.30;;;;;;484656;246;999;-77
2022/05/29 01:37:22;;;;;;;;;;;20.70;41.30;;;;;;484706;246;1012;-78
2022/05/29 01:39:24;;;;;;;;;;;20.70;41.30;;;;;;484762;246;998;-78
2022/05/29 01:41:25;;;;;;;;;;;20.70;41.20;;;;;;484820;246;1346;-78
2022/05/29 01:43:26;;;;;;;;;;;20.80;41.20;;;;;;484686;246;944;-78
2022/05/29 01:45:28;;;;;;;;;;;20.80;41.10;;;;;;484713;246;949;-78
2022/05/29 01:47:29;;;;;;;;;;;20.80;41.10;;;;;;484726;246;1344;-78
2022/05/29 01:49:30;;;;;;;;;;;20.70;41.10;;;;;;484700;246;1096;-78
2022/05/29 01:51:32;;;;;;;;;;;20.70;41.20;;;;;;484735;246;2128;-78
2022/05/29 01:53:33;;;;;;;;;;;20.70;41.30;;;;;;484865;246;1143;-78
2022/05/29 01:55:34;;;;;;;;;;;20.70;41.30;;;;;;484674;246;1042;-78
2022/05/29 01:57:36;;;;;;;;;;;20.70;41.30;;;;;;484645;246;1169;-78
2022/05/29 01:59:37;;;;;;;;;;;20.70;41.30;;;;;;484721;246;1096;-78
2022/05/29 02:01:38;;;;;;;;;;;20.70;41.20;;;;;;484684;246;1183;-78
2022/05/29 02:03:39;;;;;;;;;;;20.70;41.20;;;;;;484682;246;1091;-78
2022/05/29 02:05:41;;;;;;;;;;;20.70;41.30;;;;;;484763;246;1094;-78
2022/05/29 02:07:48;;;;;;;;;;;20.70;41.30;;;;;;484557;246;1101;-78
2022/05/29 02:09:50;;;;;;;;;;;20.70;41.30;;;;;;484775;246;989;-78
2022/05/29 02:11:51;;;;;;;;;;;20.70;41.30;;;;;;484681;246;2183;-78
2022/05/29 02:13:52;;;;;;;;;;;20.70;41.40;;;;;;484754;246;940;-78
2022/05/29 02:15:54;;;;;;;;;;;20.60;41.50;;;;;;484727;246;1091;-78
2022/05/29 02:17:55;;;;;;;;;;;20.60;41.50;;;;;;485057;246;1064;-78
2022/05/29 02:19:56;;;;;;;;;;;20.60;41.50;;;;;;484721;246;1103;-78
2022/05/29 02:21:58;;;;;;;;;;;20.60;41.40;;;;;;484812;246;1219;-78
2022/05/29 02:23:59;;;;;;;;;;;20.60;41.30;;;;;;484717;246;972;-78
2022/05/29 02:26:00;;;;;;;;;;;20.70;41.30;;;;;;484639;246;1095;-78
2022/05/29 02:28:02;;;;;;;;;;;20.70;41.20;;;;;;484713;246;1199;-78
2022/05/29 02:30:03;;;;;;;;;;;20.70;41.10;;;;;;484751;246;942;-78
2022/05/29 02:32:04;;;;;;;;;;;20.70;41.10;;;;;;484725;246;2159;-78
2022/05/29 02:34:06;;;;;;;;;;;20.70;41.20;;;;;;484721;246;981;-78
2022/05/29 02:36:20;;;;;;;;;;;20.70;41.20;;;;;;484747;246;1135;-78
2022/05/29 02:38:21;;;;;;;;;;;20.70;41.10;;;;;;484745;246;992;-78
2022/05/29 02:40:22;;;;;;;;;;;20.70;41.00;;;;;;484751;246;986;-77
2022/05/29 02:42:24;;;;;;;;;;;20.70;41.00;;;;;;484680;246;1273;-78
2022/05/29 02:44:25;;;;;;;;;;;20.70;40.90;;;;;;484741;246;998;-78
2022/05/29 02:46:26;;;;;;;;;;;20.80;40.90;;;;;;484722;246;1210;-78
2022/05/29 02:48:28;;;;;;;;;;;20.70;40.90;;;;;;484748;246;1023;-78
2022/05/29 02:50:29;;;;;;;;;;;20.80;40.80;;;;;;484644;246;1229;-78
2022/05/29 02:52:30;;;;;;;;;;;20.70;40.80;;;;;;484636;246;2129;-78
2022/05/29 02:54:31;;;;;;;;;;;20.70;40.90;;;;;;484748;246;1031;-78
2022/05/29 02:56:33;;;;;;;;;;;20.70;40.90;;;;;;484754;246;1214;-78
2022/05/29 02:58:34;;;;;;;;;;;20.70;40.90;;;;;;484783;246;1176;-78
2022/05/29 03:00:35;;;;;;;;;;;20.80;40.90;;;;;;484718;246;956;-78
2022/05/29 03:02:37;;;;;;;;;;;20.80;40.70;;;;;;484968;242;1082;-78
2022/05/29 03:04:38;;;;;;;;;;;20.80;40.70;;;;;;484800;246;1079;-78
2022/05/29 03:06:39;;;;;;;;;;;20.80;40.70;;;;;;484619;246;1210;-78
2022/05/29 03:08:41;;;;;;;;;;;20.80;40.60;;;;;;484688;246;1087;-78
2022/05/29 03:10:42;;;;;;;;;;;20.80;40.60;;;;;;485011;246;1131;-78
2022/05/29 03:12:44;;;;;;;;;;;20.80;40.60;;;;;;484940;242;2121;-78
2022/05/29 03:14:45;;;;;;;;;;;20.70;40.50;;;;;;484734;246;1287;-78
2022/05/29 03:16:46;;;;;;;;;;;20.80;40.60;;;;;;484660;246;1174;-78
2022/05/29 03:18:50;;;;;;;;;;;20.80;40.50;;;;;;484867;246;1081;-78
2022/05/29 03:20:50;;;;;;;;;;;20.80;40.50;;;;;;484617;246;1338;-78
2022/05/29 03:22:51;;;;;;;;;;;20.80;40.40;;;;;;484862;243;1148;-78
2022/05/29 03:24:52;;;;;;;;;;;20.80;40.40;;;;;;484707;246;1077;-78
2022/05/29 03:26:54;;;;;;;;;;;20.80;40.50;;;;;;484768;246;1189;-78
2022/05/29 03:28:55;;;;;;;;;;;20.90;40.30;;;;;;484704;246;1232;-78
2022/05/29 03:30:56;;;;;;;;;;;20.80;40.30;;;;;;484910;246;2137;-78
2022/05/29 03:32:58;;;;;;;;;;;20.80;40.40;;;;;;484721;246;1125;-78
2022/05/29 03:34:59;;;;;;;;;;;20.80;40.30;;;;;;484698;246;1183;-78
2022/05/29 03:37:00;;;;;;;;;;;20.80;40.30;;;;;;484611;246;1153;-78
2022/05/29 03:39:02;;;;;;;;;;;20.90;40.20;;;;;;484647;246;1111;-78
2022/05/29 03:41:03;;;;;;;;;;;20.90;40.20;;;;;;484754;242;1150;-78
2022/05/29 03:43:04;;;;;;;;;;;20.90;40.20;;;;;;484750;246;1256;-78
2022/05/29 03:45:06;;;;;;;;;;;20.80;40.30;;;;;;484871;246;1091;-78
2022/05/29 03:47:07;;;;;;;;;;;20.80;40.30;;;;;;484935;243;1169;-78
2022/05/29 03:49:08;;;;;;;;;;;20.80;40.40;;;;;;484717;246;1183;-78
2022/05/29 03:51:10;;;;;;;;;;;20.80;40.40;;;;;;484585;246;2187;-78
2022/05/29 03:53:11;;;;;;;;;;;20.90;40.30;;;;;;484874;241;1088;-78
2022/05/29 03:55:12;;;;;;;;;;;20.90;40.30;;;;;;484737;246;1147;-78
2022/05/29 03:57:14;;;;;;;;;;;20.90;40.40;;;;;;484681;246;1106;-78
2022/05/29 03:59:15;;;;;;;;;;;20.90;40.30;;;;;;484809;246;1158;-78
2022/05/29 04:01:16;;;;;;;;;;;20.80;40.40;;;;;;485001;246;1109;-78
2022/05/29 04:03:18;;;;;;;;;;;20.80;40.60;;;;;;484588;246;1161;-78
2022/05/29 04:05:20;;;;;;;;;;;20.80;40.60;;;;;;484747;246;1247;-78
2022/05/29 04:12:03;;;;;;;;;;;20.80;40.50;;;;;;484963;246;1216;-78
2022/05/29 04:14:02;;;;;;;;;;;20.90;40.40;;;;;;484875;246;1185;-78
2022/05/29 04:16:03;;;;;;;;;;;20.90;40.50;;;;;;484689;246;1108;-78
2022/05/29 04:18:04;;;;;;;;;;;20.90;40.40;;;;;;484719;246;966;-78
2022/05/29 04:20:06;;;;;;;;;;;20.90;40.50;;;;;;484753;246;1003;-78
2022/05/29 04:22:08;;;;;;;;;;;20.80;40.60;;;;;;484717;246;993;-78
2022/05/29 04:24:09;;;;;;;;;;;20.80;40.70;;;;;;484742;246;1140;-78
2022/05/29 04:26:10;;;;;;;;;;;20.70;40.70;;;;;;484701;246;1273;-78
2022/05/29 04:28:12;;;;;;;;;;;20.70;40.90;;;;;;484908;246;1127;-78
2022/05/29 04:30:13;;;;;;;;;;;20.70;40.80;;;;;;484720;246;1069;-78
2022/05/29 04:34:33;;;;;;;;;;;20.80;40.70;;;;;;484745;246;1119;-78
2022/05/29 04:36:35;;;;;;;;;;;20.90;40.70;;;;;;484750;246;1079;-78
2022/05/29 04:38:36;;;;;;;;;;;20.80;40.70;;;;;;484992;246;1144;-78
2022/05/29 04:40:37;;;;;;;;;;;20.80;40.70;;;;;;484956;246;1193;-78
2022/05/29 04:42:39;;;;;;;;;;;20.70;40.80;;;;;;484702;246;1090;-78
2022/05/29 04:44:40;;;;;;;;;;;20.70;40.80;;;;;;484709;246;1219;-78
2022/05/29 04:46:41;;;;;;;;;;;20.70;40.90;;;;;;484593;246;1098;-78
2022/05/29 04:48:43;;;;;;;;;;;20.80;40.90;;;;;;484681;246;964;-78
2022/05/29 04:50:44;;;;;;;;;;;20.80;40.90;;;;;;484665;242;1444;-78
2022/05/29 04:52:45;;;;;;;;;;;20.80;40.90;;;;;;484678;246;2135;-78
2022/05/29 04:54:47;;;;;;;;;;;20.80;40.80;;;;;;484713;246;1093;-78
2022/05/29 04:56:48;;;;;;;;;;;20.80;40.80;;;;;;484920;246;1147;-78
2022/05/29 04:58:49;;;;;;;;;;;20.80;40.80;;;;;;484697;246;1143;-78
2022/05/29 05:00:51;;;;;;;;;;;20.80;40.90;;;;;;484933;242;1059;-78
2022/05/29 05:02:52;;;;;;;;;;;20.70;40.90;;;;;;484983;246;1370;-78
2022/05/29 05:04:53;;;;;;;;;;;20.70;41.00;;;;;;485017;246;1339;-78
2022/05/29 05:06:55;;;;;;;;;;;20.80;41.10;;;;;;484875;246;1061;-78
2022/05/29 05:08:56;;;;;;;;;;;20.80;41.10;;;;;;484729;246;1316;-78
2022/05/29 05:10:57;;;;;;;;;;;20.80;41.00;;;;;;484687;246;1102;-78
2022/05/29 05:12:59;;;;;;;;;;;20.90;41.00;;;;;;484707;246;2198;-78
2022/05/29 05:15:00;;;;;;;;;;;20.80;41.00;;;;;;484764;246;1163;-78
2022/05/29 05:17:01;;;;;;;;;;;20.80;41.00;;;;;;484722;246;1248;-78
2022/05/29 05:19:03;;;;;;;;;;;20.80;41.10;;;;;;485077;246;1086;-78
2022/05/29 05:21:05;;;;;;;;;;;20.80;41.20;;;;;;484724;246;1103;-78
2022/05/29 05:23:06;;;;;;;;;;;20.70;41.30;;;;;;484799;246;1340;-78
2022/05/29 05:25:07;;;;;;;;;;;20.70;41.40;;;;;;484987;246;1108;-78
2022/05/29 05:27:09;;;;;;;;;;;20.70;41.40;;;;;;484724;246;1150;-78
2022/05/29 05:29:11;;;;;;;;;;;20.70;41.30;;;;;;484702;246;1428;-78
2022/05/29 05:31:11;;;;;;;;;;;20.70;41.40;;;;;;484689;246;1472;-78
2022/05/29 05:33:13;;;;;;;;;;;20.80;41.30;;;;;;484781;246;2147;-78
2022/05/29 05:35:14;;;;;;;;;;;20.70;41.30;;;;;;484823;246;1301;-78
2022/05/29 05:37:16;;;;;;;;;;;20.80;41.20;;;;;;484733;246;1418;-78
2022/05/29 05:39:17;;;;;;;;;;;20.90;41.20;;;;;;484633;246;1156;-78
2022/05/29 05:41:19;;;;;;;;;;;20.80;41.20;;;;;;484730;246;1206;-78
2022/05/29 05:43:20;;;;;;;;;;;20.80;41.20;;;;;;484732;246;1127;-78
2022/05/29 05:45:21;;;;;;;;;;;20.70;41.30;;;;;;484695;246;1148;-78
2022/05/29 05:47:23;;;;;;;;;;;20.70;41.40;;;;;;484873;246;1166;-78
2022/05/29 05:49:24;;;;;;;;;;;20.70;41.30;;;;;;484903;246;1164;-78
2022/05/29 05:51:25;;;;;;;;;;;20.70;41.30;;;;;;484830;242;1169;-78
2022/05/29 05:53:27;;;;;;;;;;;20.70;41.20;;;;;;484722;246;2183;-79
2022/05/29 05:55:28;;;;;;;;;;;20.70;41.30;;;;;;484874;246;1099;-78
2022/05/29 05:57:29;;;;;;;;;;;20.70;41.30;;;;;;484694;246;1204;-78
2022/05/29 05:59:31;;;;;;;;;;;20.70;41.50;;;;;;484904;246;1189;-78
2022/05/29 06:01:32;;;;;;;;;;;20.60;41.50;;;;;;484807;246;1158;-78
2022/05/29 06:03:33;;;;;;;;;;;20.60;41.60;;;;;;484674;246;1156;-78
2022/05/29 06:05:35;;;;;;;;;;;20.60;41.70;;;;;;484600;246;1104;-78
2022/05/29 06:07:36;;;;;;;;;;;20.70;41.60;;;;;;484694;242;1110;-78
2022/05/29 06:09:37;;;;;;;;;;;20.70;41.60;;;;;;484703;246;1158;-78
2022/05/29 06:11:39;;;;;;;;;;;20.60;41.60;;;;;;484707;246;1170;-78
2022/05/29 06:13:41;;;;;;;;;;;20.60;41.70;;;;;;484679;246;2195;-78
2022/05/29 06:15:44;;;;;;;;;;;20.60;41.70;;;;;;484876;242;1431;-77
2022/05/29 06:17:43;;;;;;;;;;;20.50;41.80;;;;;;484612;246;1401;-78
2022/05/29 06:19:44;;;;;;;;;;;20.50;41.80;;;;;;484711;246;1091;-78
2022/05/29 06:21:45;;;;;;;;;;;20.50;41.90;;;;;;484750;242;1209;-78
2022/05/29 06:23:47;;;;;;;;;;;20.60;41.80;;;;;;484706;246;980;-78
2022/05/29 06:25:48;;;;;;;;;;;20.60;41.70;;;;;;484755;246;1019;-78
2022/05/29 06:27:50;;;;;;;;;;;20.60;41.90;;;;;;484983;246;1168;-78
2022/05/29 06:29:51;;;;;;;;;;;20.60;41.80;;;;;;484702;246;1180;-78
2022/05/29 06:31:53;;;;;;;;;;;20.60;41.90;;;;;;484679;246;1055;-78
2022/05/29 06:33:55;;;;;;;;;;;20.60;41.90;;;;;;484699;246;2124;-78
2022/05/29 06:35:56;;;;;;;;;;;20.60;41.90;;;;;;484913;246;1099;-78
2022/05/29 06:37:57;;;;;;;;;;;20.60;42.00;;;;;;484717;242;1180;-78
2022/05/29 06:39:59;;;;;;;;;;;20.60;42.10;;;;;;484881;246;1053;-78
2022/05/29 06:42:00;;;;;;;;;;;20.50;42.10;;;;;;484705;246;1078;-78
2022/05/29 06:44:01;;;;;;;;;;;20.60;42.10;;;;;;484815;246;1157;-78
2022/05/29 06:46:03;;;;;;;;;;;20.60;42.10;;;;;;485008;246;1115;-78
2022/05/29 06:48:04;;;;;;;;;;;20.70;42.10;;;;;;484802;242;1197;-78
2022/05/29 06:50:05;;;;;;;;;;;20.60;42.10;;;;;;484621;246;1079;-78
2022/05/29 06:52:07;;;;;;;;;;;20.60;42.20;;;;;;484536;246;2196;-78
2022/05/29 06:54:08;;;;;;;;;;;20.60;42.30;;;;;;484676;246;938;-77
2022/05/29 06:56:09;;;;;;;;;;;20.50;42.30;;;;;;484733;246;1069;-77
2022/05/29 06:58:11;;;;;;;;;;;20.50;42.30;;;;;;484734;246;1269;-78
2022/05/29 07:07:30;;;;;;;;;;;20.60;42.10;;;;;;471459;246;1306;-77
2022/05/29 07:09:30;;;;;;;;;;;20.60;42.00;;;;;;484553;246;1377;-78
2022/05/29 07:11:31;;;;;;;;;;;20.60;42.10;;;;;;484639;246;999;-77
2022/05/29 07:13:33;;;;;;;;;;;20.70;42.20;;;;;;484661;246;2190;-78
2022/05/29 07:15:34;;;;;;;;;;;20.60;42.20;;;;;;484660;246;1189;-77
2022/05/29 07:17:35;;;;;;;;;;;20.60;42.20;;;;;;484615;246;1050;-77
2022/05/29 07:19:37;;;;;;;;;;;20.70;42.10;;;;;;484683;246;1300;-78
2022/05/29 07:21:38;;;;;;;;;;;20.60;42.10;;;;;;484656;246;1142;-78
2022/05/29 07:23:39;;;;;;;;;;;20.60;42.10;;;;;;484704;246;1103;-78
2022/05/29 07:25:40;;;;;;;;;;;20.60;42.10;;;;;;484785;246;1226;-78
2022/05/29 07:27:42;;;;;;;;;;;20.60;42.20;;;;;;484692;246;1088;-78
2022/05/29 07:29:43;;;;;;;;;;;20.60;42.20;;;;;;484682;246;1057;-78
2022/05/29 07:31:44;;;;;;;;;;;20.60;42.20;;;;;;484718;246;1048;-78
2022/05/29 07:33:46;;;;;;;;;;;20.60;42.40;;;;;;484864;246;2180;-78
2022/05/29 07:35:47;;;;;;;;;;;20.60;42.50;;;;;;484761;242;1152;-78
2022/05/29 07:37:48;;;;;;;;;;;20.60;42.40;;;;;;484945;246;1177;-78
2022/05/29 07:39:50;;;;;;;;;;;20.60;42.40;;;;;;484968;246;1128;-78
2022/05/29 07:44:11;;;;;;;;;;;20.60;42.50;;;;;;484804;246;1163;-78
2022/05/29 07:46:12;;;;;;;;;;;20.60;42.50;;;;;;484684;243;1506;-78
2022/05/29 07:48:13;;;;;;;;;;;20.50;42.40;;;;;;484828;246;1058;-78
2022/05/29 07:50:15;;;;;;;;;;;20.60;42.30;;;;;;484660;246;1167;-78
2022/05/29 07:52:16;;;;;;;;;;;20.60;42.40;;;;;;484853;246;1280;-77
2022/05/29 07:54:17;;;;;;;;;;;20.60;42.50;;;;;;484927;246;2487;-78
2022/05/29 07:56:19;;;;;;;;;;;20.60;42.60;;;;;;484764;246;1216;-78
2022/05/29 07:58:20;;;;;;;;;;;20.60;42.50;;;;;;484661;246;1424;-78
2022/05/29 08:00:21;;;;;;;;;;;20.60;42.60;;;;;;484725;246;1254;-78
2022/05/29 08:02:22;;;;;;;;;;;20.60;42.60;;;;;;484602;246;1107;-77
2022/05/29 08:04:24;;;;;;;;;;;20.60;42.60;;;;;;484639;246;951;-77
2022/05/29 08:06:25;;;;;;;;;;;20.50;42.80;;;;;;484697;246;1098;-78
2022/05/29 08:08:28;;;;;;;;;;;20.60;42.80;;;;;;484707;246;965;-78
2022/05/29 08:10:28;;;;;;;;;;;20.60;42.90;;;;;;484603;242;1481;-78
2022/05/29 08:12:29;;;;;;;;;;;20.60;42.80;;;;;;484707;246;1074;-78
2022/05/29 08:14:31;;;;;;;;;;;20.60;42.80;;;;;;484733;246;1282;-78
2022/05/29 08:16:33;;;;;;;;;;;20.70;42.90;;;;;;484621;246;1350;-78
2022/05/29 08:18:33;;;;;;;;;;;20.70;42.80;;;;;;484867;246;1382;-78
2022/05/29 08:20:36;;;;;;;;;;;20.70;42.90;;;;;;484660;246;1142;-77
2022/05/29 08:22:36;;;;;;;;;;;20.60;42.90;;;;;;484558;246;1485;-77
2022/05/29 08:31:35;;;;;;;;;;;20.40;43.60;;;;;;484726;246;1233;-77
2022/05/29 08:33:36;;;;;;;;;;;20.40;43.60;;;;;;484704;246;2191;-78
2022/05/29 08:35:37;;;;;;;;;;;20.50;43.60;;;;;;484623;242;1114;-77
2022/05/29 08:37:40;;;;;;;;;;;20.50;43.70;;;;;;484783;246;1185;-77
2022/05/29 08:39:40;;;;;;;;;;;20.50;43.70;;;;;;484822;246;1382;-78
2022/05/29 08:41:42;;;;;;;;;;;20.50;43.60;;;;;;484916;246;1216;-78
2022/05/29 08:43:43;;;;;;;;;;;20.50;43.70;;;;;;484767;246;1425;-78
2022/05/29 08:45:44;;;;;;;;;;;20.50;43.80;;;;;;484712;246;1275;-78
2022/05/29 08:47:46;;;;;;;;;;;20.50;43.70;;;;;;484773;246;1168;-77
2022/05/29 08:49:47;;;;;;;;;;;20.50;43.70;;;;;;484935;246;1194;-78
2022/05/29 08:51:49;;;;;;;;;;;20.60;43.70;;;;;;484929;246;1091;-78
2022/05/29 08:53:50;;;;;;;;;;;20.60;43.70;;;;;;484874;246;2132;-78
2022/05/29 08:55:51;;;;;;;;;;;20.60;43.60;;;;;;484779;246;1276;-78
2022/05/29 08:57:54;;;;;;;;;;;20.60;43.70;;;;;;484735;246;1114;-78
2022/05/29 08:59:54;;;;;;;;;;;20.60;43.80;;;;;;484852;246;1375;-78
2022/05/29 09:01:55;;;;;;;;;;;20.50;43.80;;;;;;484722;246;1132;-78
2022/05/29 09:03:57;;;;;;;;;;;20.50;43.80;;;;;;484695;246;1134;-78
2022/05/29 09:05:58;;;;;;;;;;;20.60;43.80;;;;;;484885;246;1088;-78
2022/05/29 09:07:59;;;;;;;;;;;20.50;43.70;;;;;;484887;246;1230;-78
2022/05/29 09:10:01;;;;;;;;;;;20.60;43.70;;;;;;484720;246;1211;-78
2022/05/29 09:12:02;;;;;;;;;;;20.60;43.50;;;;;;484706;246;1101;-78
2022/05/29 09:14:03;;;;;;;;;;;20.70;43.40;;;;;;484733;246;2199;-78
2022/05/29 09:16:05;;;;;;;;;;;20.70;43.40;;;;;;484896;246;1120;-78
2022/05/29 09:18:07;;;;;;;;;;;20.70;43.30;;;;;;484783;246;1132;-78
2022/05/29 09:20:09;;;;;;;;;;;20.70;43.20;;;;;;484761;246;1448;-78
2022/05/29 09:22:10;;;;;;;;;;;20.90;43.10;;;;;;484837;246;1413;-78
2022/05/29 09:24:10;;;;;;;;;;;20.80;43.00;;;;;;484635;246;1496;-78
2022/05/29 09:26:12;;;;;;;;;;;20.80;42.90;;;;;;484723;242;1216;-78
2022/05/29 09:28:13;;;;;;;;;;;20.80;42.80;;;;;;484936;246;1123;-78
2022/05/29 09:30:14;;;;;;;;;;;20.90;42.80;;;;;;484821;246;1148;-78
2022/05/29 09:32:16;;;;;;;;;;;20.90;42.60;;;;;;484857;246;1173;-78
2022/05/29 09:34:17;;;;;;;;;;;20.90;42.70;;;;;;484779;246;2182;-78
2022/05/29 09:36:18;;;;;;;;;;;20.80;42.70;;;;;;484751;246;1109;-78
2022/05/29 09:38:20;;;;;;;;;;;20.60;42.90;;;;;;484815;242;1187;-78
2022/05/29 09:40:21;;;;;;;;;;;20.60;43.00;;;;;;484696;246;1088;-78
2022/05/29 09:42:23;;;;;;;;;;;20.60;42.90;;;;;;484869;246;1244;-78
2022/05/29 09:44:24;;;;;;;;;;;20.60;42.90;;;;;;484913;246;1419;-77
2022/05/29 09:46:25;;;;;;;;;;;20.60;42.80;;;;;;484800;246;1162;-78
2022/05/29 09:50:45;;;;;;;;;;;20.50;42.90;;;;;;484830;246;1179;-78
2022/05/29 09:52:47;;;;;;;;;;;20.50;42.90;;;;;;484659;246;1154;-78
2022/05/29 09:54:48;;;;;;;;;;;20.50;42.90;;;;;;484872;246;2196;-78
2022/05/29 09:56:50;;;;;;;;;;;20.60;42.90;;;;;;484880;246;1082;-78
2022/05/29 09:58:51;;;;;;;;;;;20.60;42.80;;;;;;484697;246;1209;-78
2022/05/29 10:00:52;;;;;;;;;;;20.60;42.60;;;;;;484823;246;1168;-78
2022/05/29 10:02:53;;;;;;;;;;;20.70;42.60;;;;;;484648;246;1148;-78
2022/05/29 10:04:55;;;;;;;;;;;20.60;42.70;;;;;;484709;246;1312;-78
2022/05/29 10:06:56;;;;;;;;;;;20.50;42.90;;;;;;484923;246;1121;-78
2022/05/29 10:08:57;;;;;;;;;;;20.40;43.00;;;;;;484853;246;1198;-78
2022/05/29 10:10:59;;;;;;;;;;;20.40;43.10;;;;;;484744;246;978;-78
2022/05/29 10:13:00;;;;;;;;;;;20.40;43.10;;;;;;484651;246;1162;-78
2022/05/29 10:15:01;;;;;;;;;;;20.40;42.90;;;;;;484716;246;2184;-78
2022/05/29 10:17:03;;;;;;;;;;;20.40;42.80;;;;;;484668;246;1195;-78
2022/05/29 10:19:04;;;;;;;;;;;20.30;42.80;;;;;;484698;246;994;-78
2022/05/29 10:21:05;;;;;;;;;;;20.40;42.60;;;;;;484642;246;1114;-78
2022/05/29 10:23:07;;;;;;;;;;;20.40;42.50;;;;;;484876;246;1059;-78
2022/05/29 10:25:08;;;;;;;;;;;20.50;42.50;;;;;;484566;246;1230;-78
2022/05/29 10:27:09;;;;;;;;;;;20.50;42.40;;;;;;484653;246;1124;-78
2022/05/29 10:29:11;;;;;;;;;;;20.50;42.20;;;;;;484663;246;1175;-78
2022/05/29 10:31:12;;;;;;;;;;;20.50;42.20;;;;;;484722;246;1131;-78
2022/05/29 10:33:14;;;;;;;;;;;20.50;42.30;;;;;;484838;246;1103;-78
2022/05/29 10:35:15;;;;;;;;;;;20.50;42.40;;;;;;484655;246;2196;-77
2022/05/29 10:37:16;;;;;;;;;;;20.50;42.40;;;;;;484700;246;1160;-77
2022/05/29 10:39:17;;;;;;;;;;;20.50;42.30;;;;;;484937;246;1157;-78
2022/05/29 10:41:19;;;;;;;;;;;20.50;42.30;;;;;;484597;246;1110;-78
2022/05/29 10:43:20;;;;;;;;;;;20.60;42.20;;;;;;484725;246;1238;-78
2022/05/29 10:45:21;;;;;;;;;;;20.60;42.00;;;;;;484846;246;1103;-78
2022/05/29 10:47:23;;;;;;;;;;;20.70;42.00;;;;;;484815;246;1199;-78
2022/05/29 10:49:25;;;;;;;;;;;20.60;42.00;;;;;;484705;246;967;-78
2022/05/29 10:51:26;;;;;;;;;;;20.60;42.00;;;;;;484691;246;981;-78
2022/05/29 10:53:28;;;;;;;;;;;20.50;42.10;;;;;;484661;246;2136;-78
2022/05/29 10:55:29;;;;;;;;;;;20.50;42.10;;;;;;484716;246;966;-78
2022/05/29 10:57:31;;;;;;;;;;;20.50;42.10;;;;;;484612;246;1135;-78
2022/05/29 10:59:32;;;;;;;;;;;20.60;42.00;;;;;;484619;246;1398;-78
2022/05/29 11:03:52;;;;;;;;;;;20.50;42.00;;;;;;484711;246;1141;-78
2022/05/29 11:05:54;;;;;;;;;;;20.50;42.00;;;;;;484614;246;1202;-78
2022/05/29 11:07:55;;;;;;;;;;;20.50;42.00;;;;;;484620;246;1458;-78
2022/05/29 11:09:56;;;;;;;;;;;20.60;42.10;;;;;;484655;246;1051;-78
2022/05/29 11:11:58;;;;;;;;;;;20.60;41.90;;;;;;484747;246;1353;-78
2022/05/29 11:13:59;;;;;;;;;;;20.70;41.80;;;;;;484667;246;2195;-78
2022/05/29 11:16:00;;;;;;;;;;;20.60;41.80;;;;;;484738;246;981;-78
2022/05/29 11:18:01;;;;;;;;;;;20.70;41.70;;;;;;484678;246;1189;-78
2022/05/29 11:20:03;;;;;;;;;;;20.60;41.50;;;;;;484693;246;966;-78
2022/05/29 11:22:04;;;;;;;;;;;20.60;41.20;;;;;;484698;246;1167;-78
2022/05/29 11:24:05;;;;;;;;;;;20.60;41.10;;;;;;484657;246;1042;-78
2022/05/29 11:26:07;;;;;;;;;;;20.60;41.10;;;;;;484650;246;1070;-78
2022/05/29 11:28:08;;;;;;;;;;;20.60;41.20;;;;;;484634;246;1069;-78
2022/05/29 11:30:09;;;;;;;;;;;20.60;41.20;;;;;;484716;246;984;-78
2022/05/29 11:32:11;;;;;;;;;;;20.50;41.20;;;;;;484745;246;1293;-78
2022/05/29 11:34:12;;;;;;;;;;;20.60;41.30;;;;;;484721;246;2124;-78
2022/05/29 11:36:13;;;;;;;;;;;20.50;41.30;;;;;;484651;246;1100;-78
2022/05/29 11:38:15;;;;;;;;;;;20.50;41.40;;;;;;484809;246;1126;-78
2022/05/29 11:40:16;;;;;;;;;;;20.50;41.50;;;;;;484976;246;1075;-77
2022/05/29 11:42:17;;;;;;;;;;;20.40;41.60;;;;;;484564;246;1158;-78
2022/05/29 11:44:19;;;;;;;;;;;20.50;41.50;;;;;;484636;246;1268;-77
2022/05/29 11:51:10;;;;;;;;;;;20.60;41.20;;;;;;484685;246;1136;-78
2022/05/29 11:53:09;;;;;;;;;;;20.60;41.20;;;;;;484484;246;1458;-77
2022/05/29 11:55:10;;;;;;;;;;;20.50;41.20;;;;;;484661;246;2192;-78
2022/05/29 11:57:12;;;;;;;;;;;20.60;41.20;;;;;;484864;246;1054;-78
2022/05/29 11:59:13;;;;;;;;;;;20.50;41.10;;;;;;484710;246;1111;-78
2022/05/29 12:01:15;;;;;;;;;;;20.50;41.10;;;;;;484602;243;1164;-78
2022/05/29 12:03:16;;;;;;;;;;;20.50;41.10;;;;;;484541;246;1444;-78
2022/05/29 12:05:17;;;;;;;;;;;20.50;41.00;;;;;;484636;246;1131;-78
2022/05/29 12:07:18;;;;;;;;;;;20.50;41.10;;;;;;484903;246;1113;-78
2022/05/29 12:09:20;;;;;;;;;;;20.50;41.20;;;;;;484676;246;1118;-78
2022/05/29 12:11:21;;;;;;;;;;;20.50;41.20;;;;;;484669;246;1216;-78
2022/05/29 12:13:22;;;;;;;;;;;20.50;41.20;;;;;;484617;246;990;-77
2022/05/29 12:15:24;;;;;;;;;;;20.60;41.20;;;;;;484684;246;2144;-77
2022/05/29 12:17:25;;;;;;;;;;;20.50;41.20;;;;;;484699;246;1269;-77
2022/05/29 12:19:26;;;;;;;;;;;20.50;41.30;;;;;;484703;246;1184;-78
2022/05/29 12:21:28;;;;;;;;;;;20.60;41.30;;;;;;484631;246;1164;-78
2022/05/29 12:23:29;;;;;;;;;;;20.50;41.20;;;;;;484808;246;1134;-78
2022/05/29 12:25:30;;;;;;;;;;;20.60;41.10;;;;;;484941;246;1138;-78
2022/05/29 12:27:32;;;;;;;;;;;20.60;41.00;;;;;;484858;246;1303;-77
2022/05/29 12:29:34;;;;;;;;;;;20.60;40.90;;;;;;484820;246;1117;-78